createdAt,value
2022-07-29T00:02:24.491Z,50.26
2022-07-29T00:04:51.547Z,50.42
2022-07-29T00:07:18.667Z,50.65
2022-07-29T00:09:51.556Z,50.52
2022-07-29T00:12:25.177Z,50.45
2022-07-29T00:14:53.966Z,50.19
2022-07-29T00:17:21.142Z,50.71
2022-07-29T00:19:48.226Z,50.84
2022-07-29T00:22:15.839Z,51.10
2022-07-29T00:24:43.349Z,50.54
2022-07-29T00:32:36.829Z,52.33
2022-07-29T00:35:23.001Z,52.57
2022-07-29T00:37:50.064Z,52.66
2022-07-29T00:40:17.851Z,53.05
2022-07-29T00:42:45.645Z,52.69
2022-07-29T00:45:13.315Z,52.23
2022-07-29T00:47:40.495Z,53.45
2022-07-29T00:50:09.258Z,53.50
2022-07-29T00:57:02.750Z,52.90
2022-07-29T01:00:19.864Z,53.79
2022-07-29T01:07:13.730Z,53.58
2022-07-29T01:09:46.623Z,53.48
2022-07-29T01:12:19.845Z,53.56
2022-07-29T01:14:48.840Z,53.65
2022-07-29T01:17:25.725Z,53.29
2022-07-29T01:19:52.747Z,55.38
2022-07-29T01:22:32.341Z,55.79
2022-07-29T01:25:22.466Z,57.25
2022-07-29T01:27:49.572Z,56.59
2022-07-29T01:30:17.044Z,55.36
2022-07-29T01:32:48.473Z,56.89
2022-07-29T01:35:22.114Z,56.97
2022-07-29T01:37:52.013Z,57.41
2022-07-29T01:40:28.171Z,58.03
2022-07-29T01:42:59.062Z,57.80
2022-07-29T01:45:26.133Z,59.49
2022-07-29T01:48:13.966Z,58.94
2022-07-29T01:50:45.264Z,58.69
2022-07-29T01:53:13.648Z,59.56
2022-07-29T01:55:42.828Z,59.48
2022-07-29T01:58:11.791Z,58.68
2022-07-29T02:00:40.275Z,57.72
2022-07-29T02:03:12.331Z,58.10
2022-07-29T02:05:42.069Z,57.44
2022-07-29T02:08:10.776Z,56.92
2022-07-29T02:10:39.111Z,57.30
2022-07-29T02:13:06.735Z,59.19
2022-07-29T02:15:35.031Z,62.15
2022-07-29T02:18:04.511Z,62.07
2022-07-29T02:20:32.126Z,61.75
2022-07-29T02:23:00.754Z,63.23
2022-07-29T02:25:36.981Z,64.42
2022-07-29T02:32:50.266Z,67.79
2022-07-29T02:35:17.865Z,65.49
2022-07-29T02:37:46.573Z,63.58
2022-07-29T02:40:15.588Z,66.20
2022-07-29T02:42:44.830Z,66.26
2022-07-29T02:45:11.941Z,64.46
2022-07-29T02:47:43.604Z,67.09
2022-07-29T02:50:13.415Z,66.62
2022-07-29T02:52:53.406Z,66.67
2022-07-29T03:17:47.392Z,60.88
2022-07-29T03:20:14.713Z,60.53
2022-07-29T03:22:44.542Z,59.86
2022-07-29T03:34:18.306Z,60.45
2022-07-29T03:36:45.809Z,60.51
2022-07-29T03:39:13.021Z,60.47
2022-07-29T03:41:42.649Z,61.74
2022-07-29T03:44:09.962Z,60.69
2022-07-29T03:46:40.062Z,60.80
2022-07-29T03:49:09.291Z,60.77
2022-07-29T03:51:36.463Z,60.45
2022-07-29T03:54:09.533Z,59.89
2022-07-29T03:56:39.383Z,61.45
2022-07-29T03:59:06.844Z,60.80
2022-07-29T04:01:34.568Z,60.64
2022-07-29T04:04:05.657Z,60.25
2022-07-29T04:06:42.549Z,59.84
2022-07-29T04:09:10.144Z,59.65
2022-07-29T04:12:02.712Z,59.87
2022-07-29T04:14:25.741Z,60.08
2022-07-29T04:16:53.912Z,60.11
2022-07-29T04:19:21.021Z,59.95
2022-07-29T04:21:48.156Z,59.57
2022-07-29T04:24:15.624Z,59.23
2022-07-29T04:26:43.411Z,59.18
2022-07-29T04:29:10.457Z,59.10
2022-07-29T04:31:37.618Z,59.64
2022-07-29T04:34:04.789Z,60.17
2022-07-29T04:36:31.880Z,60.36
2022-07-29T04:38:59.001Z,60.28
2022-07-29T04:41:32.968Z,60.63
2022-07-29T04:44:05.953Z,60.78
2022-07-29T04:46:34.802Z,61.28
2022-07-29T04:49:02.162Z,61.37
2022-07-29T04:51:29.228Z,60.92
2022-07-29T04:53:56.296Z,61.72
2022-07-29T04:56:23.491Z,62.14
2022-07-29T04:58:50.603Z,61.65
2022-07-29T05:01:17.879Z,61.22
2022-07-29T05:03:46.131Z,62.00
2022-07-29T05:06:13.241Z,62.33
2022-07-29T05:08:41.880Z,62.52
2022-07-29T05:11:11.772Z,62.24
2022-07-29T05:13:46.121Z,62.11
2022-07-29T05:16:14.797Z,62.70
2022-07-29T05:18:43.226Z,61.75
2022-07-29T05:21:10.381Z,65.46
2022-07-29T05:23:37.467Z,65.66
2022-07-29T05:26:04.587Z,65.07
2022-07-29T05:28:34.338Z,64.25
2022-07-29T05:31:01.661Z,64.83
2022-07-29T05:33:36.228Z,63.76
2022-07-29T05:36:06.581Z,64.44
2022-07-29T05:38:34.098Z,63.51
2022-07-29T05:41:01.240Z,63.35
2022-07-29T05:43:28.688Z,64.01
2022-07-29T05:45:56.121Z,63.95
2022-07-29T05:48:23.258Z,63.58
2022-07-29T05:50:50.332Z,63.47
2022-07-29T05:53:19.346Z,66.25
2022-07-29T05:55:51.297Z,67.69
2022-07-29T05:58:18.538Z,67.84
2022-07-29T06:00:45.794Z,68.30
2022-07-29T06:03:27.888Z,69.34
2022-07-29T06:05:55.013Z,67.98
2022-07-29T06:08:22.066Z,67.76
2022-07-29T06:10:52.021Z,67.16
2022-07-29T06:13:20.864Z,67.19
2022-07-29T06:15:47.984Z,67.31
2022-07-29T06:18:15.181Z,66.25
2022-07-29T06:20:42.298Z,64.69
2022-07-29T06:23:10.880Z,64.72
2022-07-29T06:25:38.536Z,63.84
2022-07-29T06:28:05.740Z,63.01
2022-07-29T06:31:22.918Z,60.97
2022-07-29T06:33:50.055Z,60.00
2022-07-29T06:36:17.134Z,59.33
2022-07-29T06:38:49.523Z,58.42
2022-07-29T06:41:19.018Z,57.02
2022-07-29T06:43:51.754Z,56.69
2022-07-29T06:46:20.564Z,54.92
2022-07-29T06:48:48.711Z,54.30
2022-07-29T06:51:16.325Z,53.67
2022-07-29T06:54:00.216Z,52.19
2022-07-29T06:56:31.442Z,53.48
2022-07-29T06:58:58.699Z,54.43
2022-07-29T07:01:26.002Z,54.13
2022-07-29T07:03:53.118Z,53.45
2022-07-29T07:06:49.014Z,54.07
2022-07-29T07:09:16.053Z,54.09
2022-07-29T07:11:46.138Z,54.21
2022-07-29T07:14:41.958Z,53.18
2022-07-29T07:17:09.210Z,52.47
2022-07-29T07:20:01.771Z,50.58
2022-07-29T07:22:28.852Z,51.37
2022-07-29T07:24:55.954Z,50.62
2022-07-29T07:27:47.713Z,49.72
2022-07-29T07:30:14.831Z,48.92
2022-07-29T07:32:41.876Z,49.24
2022-07-29T07:35:09.614Z,48.11
2022-07-29T07:37:36.776Z,47.90
2022-07-29T07:40:04.501Z,47.90
2022-07-29T07:42:51.929Z,47.39
2022-07-29T07:45:19.145Z,47.76
2022-07-29T07:47:46.165Z,47.40
2022-07-29T07:50:18.438Z,47.18
2022-07-29T07:52:50.397Z,46.59
2022-07-29T07:55:17.567Z,44.88
2022-07-29T07:57:45.198Z,44.14
2022-07-29T08:00:13.982Z,43.04
2022-07-29T08:02:41.599Z,42.60
2022-07-29T08:05:17.823Z,41.55
2022-07-29T08:07:46.615Z,41.81
2022-07-29T08:10:18.556Z,41.33
2022-07-29T08:15:30.909Z,40.72
2022-07-29T08:17:58.140Z,40.78
2022-07-29T08:20:25.260Z,40.29
2022-07-29T08:22:54.498Z,40.14
2022-07-29T08:25:21.691Z,40.47
2022-07-29T08:27:49.140Z,40.52
2022-07-29T08:30:16.436Z,40.30
2022-07-29T08:32:53.657Z,40.37
2022-07-29T08:35:22.159Z,40.50
2022-07-29T08:37:49.416Z,40.49
2022-07-29T08:40:16.587Z,39.99
2022-07-29T08:42:43.790Z,38.95
2022-07-29T08:45:11.174Z,38.26
2022-07-29T08:47:40.663Z,38.39
2022-07-29T08:50:08.534Z,37.93
2022-07-29T08:52:37.258Z,38.27
2022-07-29T08:55:05.395Z,38.62
2022-07-29T08:57:33.666Z,39.70
2022-07-29T09:00:08.023Z,39.62
2022-07-29T09:02:41.236Z,39.69
2022-07-29T09:05:51.989Z,39.78
2022-07-29T09:08:21.205Z,40.52
2022-07-29T09:10:48.808Z,39.95
2022-07-29T09:13:15.950Z,39.74
2022-07-29T09:19:48.649Z,39.46
2022-07-29T09:22:30.076Z,39.13
2022-07-29T09:29:38.517Z,38.09
2022-07-29T09:32:07.816Z,37.34
2022-07-29T09:34:38.437Z,37.47
2022-07-29T09:37:09.280Z,36.79
2022-07-29T09:40:01.660Z,37.89
2022-07-29T09:42:30.205Z,36.59
2022-07-29T09:44:57.285Z,37.19
2022-07-29T09:47:40.915Z,37.81
2022-07-29T09:53:40.833Z,37.41
2022-07-29T09:56:55.231Z,37.04
2022-07-29T09:59:25.308Z,36.02
2022-07-29T10:02:22.729Z,35.38
2022-07-29T10:05:17.887Z,35.12
2022-07-29T10:07:53.183Z,35.50
2022-07-29T10:10:31.262Z,35.22
2022-07-29T10:13:23.859Z,35.45
2022-07-29T10:15:52.217Z,33.87
2022-07-29T10:18:20.905Z,34.36
2022-07-29T10:20:49.126Z,33.72
2022-07-29T10:23:19.621Z,34.47
2022-07-29T10:25:46.970Z,34.39
2022-07-29T10:28:21.422Z,33.70
2022-07-29T10:30:53.910Z,33.79
2022-07-29T10:33:50.423Z,33.77
2022-07-29T10:40:34.001Z,33.93
2022-07-29T10:43:07.529Z,33.89
2022-07-29T10:45:34.769Z,33.51
2022-07-29T10:48:09.813Z,32.78
2022-07-29T10:51:04.575Z,32.94
2022-07-29T10:53:48.382Z,32.85
2022-07-29T10:56:25.339Z,31.37
2022-07-29T10:59:11.276Z,31.20
2022-07-29T11:01:39.117Z,32.35
2022-07-29T11:04:36.134Z,32.69
2022-07-29T11:07:06.053Z,32.58
2022-07-29T11:15:03.003Z,33.80
2022-07-29T11:17:53.090Z,34.23
2022-07-29T11:20:33.187Z,34.39
2022-07-29T11:23:00.416Z,34.06
2022-07-29T11:25:50.306Z,33.36
2022-07-29T11:28:23.108Z,34.05
2022-07-29T11:31:18.723Z,34.20
2022-07-29T11:36:59.489Z,35.88
2022-07-29T11:39:52.917Z,35.67
2022-07-29T11:42:28.188Z,37.07
2022-07-29T11:45:41.397Z,38.98
2022-07-29T11:48:28.590Z,38.94
2022-07-29T11:50:58.173Z,39.80
2022-07-29T11:53:29.282Z,40.65
2022-07-29T11:55:59.882Z,40.32
2022-07-29T11:58:28.288Z,40.04
2022-07-29T12:00:56.261Z,40.92
2022-07-29T12:03:50.785Z,40.70
2022-07-29T12:06:21.092Z,42.07
2022-07-29T12:07:03.416Z,35.37
2022-07-29T12:08:59.244Z,42.91
2022-07-29T12:15:46.836Z,50.23
2022-07-29T12:19:12.898Z,53.34
2022-07-29T12:26:21.945Z,62.75
2022-07-29T12:28:52.912Z,68.32
2022-07-29T12:31:42.836Z,65.06
2022-07-29T12:34:09.043Z,69.19
2022-07-29T12:36:37.268Z,67.83
2022-07-29T12:39:10.025Z,69.02
2022-07-29T12:41:37.168Z,69.98
2022-07-29T12:44:31.316Z,70.38
2022-07-29T12:47:05.053Z,72.05
2022-07-29T12:49:32.195Z,72.31
2022-07-29T12:52:24.132Z,72.28
2022-07-29T12:54:51.300Z,71.86
2022-07-29T12:57:20.135Z,73.38
2022-07-29T13:03:02.481Z,70.66
2022-07-29T13:05:48.534Z,69.33
2022-07-29T13:17:51.085Z,73.75
2022-07-29T13:20:20.052Z,73.27
2022-07-29T13:23:40.150Z,73.17
2022-07-29T13:26:08.698Z,73.89
2022-07-29T13:28:36.223Z,73.68
2022-07-29T13:31:03.493Z,77.29
2022-07-29T13:33:32.154Z,77.58
2022-07-29T13:36:01.692Z,81.17
2022-07-29T13:38:30.928Z,75.95
2022-07-29T13:40:58.811Z,74.27
2022-07-29T13:44:11.482Z,76.56
2022-07-29T13:46:39.506Z,77.90
2022-07-29T13:49:07.381Z,83.28
2022-07-29T13:51:34.499Z,85.87
2022-07-29T13:54:01.609Z,84.83
2022-07-29T13:56:29.746Z,79.72
2022-07-29T13:58:57.793Z,86.04
2022-07-29T14:01:25.567Z,81.98
2022-07-29T14:03:52.748Z,82.93
2022-07-29T14:06:20.135Z,80.24
2022-07-29T14:08:49.400Z,83.31
2022-07-29T14:11:16.544Z,84.64
2022-07-29T14:13:43.619Z,81.53
2022-07-29T14:16:10.862Z,81.07
2022-07-29T14:18:38.003Z,86.54
2022-07-29T14:21:05.131Z,84.88
2022-07-29T14:23:32.356Z,82.08
2022-07-29T14:25:59.439Z,82.99
2022-07-29T14:28:51.978Z,81.62
2022-07-29T14:31:19.065Z,83.99
2022-07-29T14:33:49.307Z,83.98
2022-07-29T14:36:16.664Z,82.25
2022-07-29T14:38:43.882Z,80.44
2022-07-29T14:41:10.980Z,79.54
2022-07-29T14:43:38.159Z,80.14
2022-07-29T14:46:08.386Z,79.21
2022-07-29T14:48:36.079Z,81.17
2022-07-29T14:51:05.115Z,86.40
2022-07-29T14:53:33.057Z,86.63
2022-07-29T14:56:10.387Z,86.61
2022-07-29T14:58:51.497Z,86.18
2022-07-29T15:01:20.690Z,85.41
2022-07-29T15:03:47.809Z,83.35
2022-07-29T15:06:14.942Z,80.73
2022-07-29T15:08:42.010Z,79.44
2022-07-29T15:11:09.190Z,80.06
2022-07-29T15:13:36.289Z,79.47
2022-07-29T15:16:03.476Z,79.74
2022-07-29T15:18:31.010Z,79.46
2022-07-29T15:21:01.422Z,80.09
2022-07-29T15:23:29.747Z,81.10
2022-07-29T15:25:56.874Z,81.31
2022-07-29T15:28:23.958Z,81.10
2022-07-29T15:30:51.078Z,80.10
2022-07-29T15:33:18.778Z,79.83
2022-07-29T15:35:46.063Z,79.91
2022-07-29T15:47:38.275Z,82.32
2022-07-29T15:50:05.679Z,82.78
2022-07-29T15:52:32.748Z,84.20
2022-07-29T15:55:00.323Z,83.53
2022-07-29T15:57:27.373Z,83.42
2022-07-29T15:59:55.354Z,84.08
2022-07-29T16:02:47.808Z,84.41
2022-07-29T16:05:14.986Z,85.40
2022-07-29T16:07:42.057Z,82.74
2022-07-29T16:10:37.322Z,81.78
2022-07-29T16:13:55.276Z,82.03
2022-07-29T16:16:23.015Z,80.61
2022-07-29T16:18:51.245Z,79.04
2022-07-29T16:21:18.347Z,79.33
2022-07-29T16:24:14.239Z,77.82
2022-07-29T16:26:41.416Z,77.14
2022-07-29T16:29:08.531Z,77.09
2022-07-29T16:31:35.682Z,76.62
2022-07-29T16:34:02.837Z,77.78
2022-07-29T16:36:30.035Z,77.20
2022-07-29T16:38:57.215Z,72.73
2022-07-29T16:41:24.339Z,71.52
2022-07-29T16:43:51.483Z,72.08
2022-07-29T16:46:19.384Z,73.39
2022-07-29T16:48:47.914Z,72.92
2022-07-29T16:51:16.156Z,69.38
2022-07-29T16:53:52.407Z,70.36
2022-07-29T16:56:45.399Z,69.37
2022-07-29T16:59:12.457Z,71.63
2022-07-29T17:01:39.656Z,71.66
2022-07-29T17:04:06.740Z,74.62
2022-07-29T17:06:37.745Z,74.39
2022-07-29T17:09:05.686Z,76.13
2022-07-29T17:11:53.425Z,78.95
2022-07-29T17:14:24.199Z,77.40
2022-07-29T17:17:00.653Z,78.25
2022-07-29T17:19:30.124Z,80.76
2022-07-29T17:22:06.449Z,80.77
2022-07-29T17:24:34.109Z,81.54
2022-07-29T17:27:01.707Z,82.23
2022-07-29T17:29:54.168Z,84.00
2022-07-29T17:36:24.347Z,80.93
2022-07-29T17:38:56.554Z,80.04
2022-07-29T17:41:25.540Z,82.46
2022-07-29T17:43:57.667Z,83.26
2022-07-29T17:46:50.749Z,83.53
2022-07-29T17:49:19.154Z,84.61
2022-07-29T17:51:46.455Z,85.74
2022-07-29T17:54:13.834Z,87.05
2022-07-29T17:56:41.587Z,86.30
2022-07-29T17:59:10.445Z,88.29
2022-07-29T18:01:41.403Z,90.23
2022-07-29T18:04:08.882Z,91.51
2022-07-29T18:06:36.149Z,94.88
2022-07-29T18:09:03.475Z,96.36
2022-07-29T18:16:20.055Z,99.12
2022-07-29T18:28:00.742Z,95.99
2022-07-29T18:30:28.658Z,95.41
2022-07-29T18:33:20.123Z,93.60
2022-07-29T18:35:46.269Z,92.60
2022-07-29T18:38:13.429Z,92.40
2022-07-29T18:40:42.043Z,91.97
2022-07-29T18:43:09.243Z,91.43
2022-07-29T18:45:36.385Z,90.59
2022-07-29T18:48:13.225Z,90.76
2022-07-29T18:50:41.387Z,90.06
2022-07-29T18:53:08.761Z,90.17
2022-07-29T18:56:47.076Z,90.64
2022-07-29T18:59:22.217Z,87.23
2022-07-29T19:03:15.213Z,89.42
2022-07-29T19:06:30.510Z,84.96
2022-07-29T19:08:57.581Z,85.88
2022-07-29T19:11:28.781Z,85.87
2022-07-29T19:14:42.021Z,85.65
2022-07-29T19:17:09.157Z,85.55
2022-07-29T19:19:36.204Z,85.20
2022-07-29T19:22:03.320Z,86.06
2022-07-29T19:24:30.392Z,86.07
2022-07-29T19:26:57.835Z,86.70
2022-07-29T19:29:26.493Z,87.49
2022-07-29T19:31:53.721Z,87.95
2022-07-29T19:34:20.853Z,88.73
2022-07-29T19:36:47.931Z,89.97
2022-07-29T19:39:15.417Z,89.89
2022-07-29T19:41:42.536Z,88.51
2022-07-29T19:44:11.284Z,86.83
2022-07-29T19:46:41.585Z,88.65
2022-07-29T19:49:17.008Z,88.94
2022-07-29T19:51:44.178Z,90.30
2022-07-29T19:54:36.006Z,88.75
2022-07-29T19:57:28.007Z,88.98
2022-07-29T20:00:08.435Z,90.69
2022-07-29T20:02:39.219Z,87.61
2022-07-29T20:05:06.724Z,86.94
2022-07-29T20:07:34.408Z,87.33
2022-07-29T20:10:01.548Z,87.45
2022-07-29T20:12:28.704Z,87.13
2022-07-29T20:14:55.886Z,87.31
2022-07-29T20:17:23.030Z,89.73
2022-07-29T20:19:50.536Z,88.98
2022-07-29T20:22:21.171Z,88.50
2022-07-29T20:24:48.832Z,90.03
2022-07-29T20:27:15.956Z,90.86
2022-07-29T20:29:43.054Z,88.89
2022-07-29T20:32:11.988Z,91.46
2022-07-29T20:34:41.177Z,92.60
2022-07-29T20:37:11.243Z,90.50
2022-07-29T20:39:38.325Z,90.39
2022-07-29T20:42:05.867Z,89.71
2022-07-29T20:44:32.950Z,89.11
2022-07-29T20:47:00.229Z,91.68
2022-07-29T20:49:27.686Z,89.67
2022-07-29T20:51:54.791Z,89.96
2022-07-29T20:54:21.875Z,89.43
2022-07-29T20:56:48.964Z,88.92
2022-07-29T20:59:17.664Z,89.97
2022-07-29T21:01:44.901Z,90.79
2022-07-29T21:04:12.115Z,93.15
2022-07-29T21:06:39.200Z,93.65
2022-07-29T21:09:06.251Z,91.68
2022-07-29T21:11:43.572Z,92.60
2022-07-29T21:14:20.657Z,91.25
2022-07-29T21:16:47.716Z,91.46
2022-07-29T21:19:14.829Z,92.02
2022-07-29T21:21:41.900Z,91.15
2022-07-29T21:24:08.982Z,91.59
2022-07-29T21:26:39.398Z,92.23
2022-07-29T21:29:06.587Z,92.36
2022-07-29T21:31:33.636Z,92.66
2022-07-29T21:34:00.725Z,91.99
2022-07-29T21:36:47.862Z,92.40
2022-07-29T21:39:14.843Z,92.96
2022-07-29T21:41:41.891Z,91.11
2022-07-29T21:44:08.986Z,90.42
2022-07-29T21:46:36.725Z,90.38
2022-07-29T21:49:03.953Z,90.15
2022-07-29T21:51:31.020Z,91.44
2022-07-29T21:53:58.106Z,92.87
2022-07-29T21:56:27.807Z,93.02
2022-07-29T21:58:55.384Z,92.22
2022-07-29T22:01:22.644Z,93.18
2022-07-29T22:03:49.753Z,95.39
2022-07-29T22:06:18.130Z,96.14
2022-07-29T22:08:45.811Z,96.16
2022-07-29T22:14:55.542Z,98.77
2022-07-29T22:17:25.884Z,98.71
2022-07-29T22:19:53.546Z,99.25
2022-07-29T22:22:20.916Z,100.00
2022-07-29T22:25:38.228Z,98.92
2022-07-29T22:28:05.292Z,98.72
2022-07-29T22:30:32.366Z,98.00
2022-07-29T22:32:59.462Z,97.85
2022-07-29T22:35:26.557Z,97.33
2022-07-29T22:37:54.187Z,95.82
2022-07-29T22:40:21.319Z,94.98
2022-07-29T22:42:48.498Z,94.53
2022-07-29T22:45:15.579Z,94.42
2022-07-29T22:47:47.795Z,94.79
2022-07-29T22:50:16.163Z,96.35
2022-07-29T22:52:43.263Z,96.48
2022-07-29T22:55:10.417Z,98.88
2022-07-29T22:57:37.634Z,98.36
2022-07-29T23:00:05.654Z,97.52
2022-07-29T23:02:32.736Z,96.20
2022-07-29T23:04:59.773Z,96.14
2022-07-29T23:07:27.161Z,96.67
2022-07-29T23:09:54.280Z,95.85
2022-07-29T23:12:21.350Z,96.28
2022-07-29T23:14:48.432Z,96.10
2022-07-29T23:17:15.536Z,95.83
2022-07-29T23:19:42.614Z,97.08
2022-07-29T23:22:09.741Z,96.76
2022-07-29T23:24:36.834Z,96.13
2022-07-29T23:27:04.109Z,96.58
2022-07-29T23:29:36.475Z,96.00
2022-07-29T23:32:04.065Z,95.22
2022-07-29T23:34:31.190Z,95.66
2022-07-29T23:36:58.533Z,95.30
2022-07-29T23:39:51.267Z,95.21
2022-07-29T23:42:18.561Z,95.31
2022-07-29T23:44:45.583Z,95.30
2022-07-29T23:47:13.647Z,94.71
2022-07-29T23:49:40.802Z,94.74
2022-07-29T23:52:07.859Z,94.88
2022-07-29T23:54:35.121Z,94.98
2022-07-29T23:57:02.668Z,94.64
2022-07-29T23:59:30.011Z,93.90
